sensor_id;sensor_type;location;lat;lon;timestamp;pressure;altitude;pressure_sealevel;temperature;humidity
54816;BME280;40715;55.752;37.884;2024-02-26T00:00:41;100075.72;;;27.02;30.10
54816;BME280;40715;55.752;37.884;2024-02-26T00:03:08;100064.06;;;27.01;30.05
54816;BME280;40715;55.752;37.884;2024-02-26T00:05:35;100057.06;;;26.99;30.14
54816;BME280;40715;55.752;37.884;2024-02-26T00:08:02;100048.09;;;26.98;30.12
54816;BME280;40715;55.752;37.884;2024-02-26T00:10:31;100058.03;;;26.98;29.98
54816;BME280;40715;55.752;37.884;2024-02-26T00:12:58;100063.84;;;26.93;29.71
54816;BME280;40715;55.752;37.884;2024-02-26T00:15:25;100062.88;;;26.94;29.89
54816;BME280;40715;55.752;37.884;2024-02-26T00:17:53;100061.50;;;27.00;29.95
54816;BME280;40715;55.752;37.884;2024-02-26T00:20:20;100064.28;;;27.10;29.61
54816;BME280;40715;55.752;37.884;2024-02-26T00:22:47;100059.22;;;27.16;29.63
54816;BME280;40715;55.752;37.884;2024-02-26T00:25:14;100062.28;;;27.12;29.70
54816;BME280;40715;55.752;37.884;2024-02-26T00:27:41;100059.94;;;27.18;29.63
54816;BME280;40715;55.752;37.884;2024-02-26T00:30:09;100060.66;;;27.20;29.69
54816;BME280;40715;55.752;37.884;2024-02-26T00:32:36;100063.81;;;27.26;29.39
54816;BME280;40715;55.752;37.884;2024-02-26T00:35:03;100063.44;;;27.30;29.28
54816;BME280;40715;55.752;37.884;2024-02-26T00:37:30;100062.22;;;27.34;29.27
54816;BME280;40715;55.752;37.884;2024-02-26T00:39:57;100066.75;;;27.34;29.34
54816;BME280;40715;55.752;37.884;2024-02-26T00:42:24;100066.63;;;27.35;29.24
54816;BME280;40715;55.752;37.884;2024-02-26T00:44:52;100060.25;;;27.36;29.09
54816;BME280;40715;55.752;37.884;2024-02-26T00:47:19;100050.28;;;27.37;29.16
54816;BME280;40715;55.752;37.884;2024-02-26T00:49:46;100059.38;;;27.36;29.10
54816;BME280;40715;55.752;37.884;2024-02-26T00:52:13;100056.53;;;27.37;29.17
54816;BME280;40715;55.752;37.884;2024-02-26T00:54:40;100060.25;;;27.36;28.99
54816;BME280;40715;55.752;37.884;2024-02-26T00:57:07;100052.00;;;27.38;29.05
54816;BME280;40715;55.752;37.884;2024-02-26T00:59:34;100050.00;;;27.40;29.02
54816;BME280;40715;55.752;37.884;2024-02-26T01:02:01;100051.88;;;27.40;28.84
54816;BME280;40715;55.752;37.884;2024-02-26T01:04:29;100034.88;;;27.37;29.02
54816;BME280;40715;55.752;37.884;2024-02-26T01:06:56;100053.34;;;27.32;28.94
54816;BME280;40715;55.752;37.884;2024-02-26T01:09:23;100044.63;;;27.29;28.83
54816;BME280;40715;55.752;37.884;2024-02-26T01:11:50;100039.97;;;27.31;28.97
54816;BME280;40715;55.752;37.884;2024-02-26T01:14:17;100047.19;;;27.30;28.94
54816;BME280;40715;55.752;37.884;2024-02-26T01:16:44;100054.59;;;27.28;28.79
54816;BME280;40715;55.752;37.884;2024-02-26T01:19:11;100047.59;;;27.26;29.07
54816;BME280;40715;55.752;37.884;2024-02-26T01:21:39;100043.56;;;27.20;28.96
54816;BME280;40715;55.752;37.884;2024-02-26T01:24:06;100050.22;;;27.16;29.01
54816;BME280;40715;55.752;37.884;2024-02-26T01:26:35;100052.34;;;27.12;29.05
54816;BME280;40715;55.752;37.884;2024-02-26T01:29:02;100045.75;;;27.05;29.00
54816;BME280;40715;55.752;37.884;2024-02-26T01:31:29;100046.88;;;27.02;29.06
54816;BME280;40715;55.752;37.884;2024-02-26T01:33:56;100040.72;;;27.00;28.89
54816;BME280;40715;55.752;37.884;2024-02-26T01:36:23;100039.06;;;27.09;28.90
54816;BME280;40715;55.752;37.884;2024-02-26T01:38:50;100045.94;;;27.13;28.96
54816;BME280;40715;55.752;37.884;2024-02-26T01:41:17;100040.72;;;27.21;28.78
54816;BME280;40715;55.752;37.884;2024-02-26T01:43:44;100046.63;;;27.27;28.67
54816;BME280;40715;55.752;37.884;2024-02-26T01:46:13;100034.78;;;27.28;28.60
54816;BME280;40715;55.752;37.884;2024-02-26T01:48:42;100041.78;;;27.30;28.42
54816;BME280;40715;55.752;37.884;2024-02-26T01:51:10;100036.09;;;27.33;28.45
54816;BME280;40715;55.752;37.884;2024-02-26T01:53:39;100030.34;;;27.38;28.50
54816;BME280;40715;55.752;37.884;2024-02-26T01:56:07;100040.91;;;27.41;28.48
54816;BME280;40715;55.752;37.884;2024-02-26T01:58:36;100036.34;;;27.42;28.26
54816;BME280;40715;55.752;37.884;2024-02-26T02:01:04;100025.66;;;27.40;28.32
54816;BME280;40715;55.752;37.884;2024-02-26T02:03:31;100035.22;;;27.44;28.18
54816;BME280;40715;55.752;37.884;2024-02-26T02:05:59;100025.25;;;27.45;28.42
54816;BME280;40715;55.752;37.884;2024-02-26T02:08:27;100022.94;;;27.40;28.24
54816;BME280;40715;55.752;37.884;2024-02-26T02:10:54;100022.94;;;27.40;28.25
54816;BME280;40715;55.752;37.884;2024-02-26T02:13:21;100024.81;;;27.40;28.19
54816;BME280;40715;55.752;37.884;2024-02-26T02:15:48;100024.53;;;27.43;28.05
54816;BME280;40715;55.752;37.884;2024-02-26T02:18:16;100017.94;;;27.35;28.14
54816;BME280;40715;55.752;37.884;2024-02-26T02:20:43;100028.53;;;27.27;28.10
54816;BME280;40715;55.752;37.884;2024-02-26T02:23:10;100019.84;;;27.24;28.11
54816;BME280;40715;55.752;37.884;2024-02-26T02:25:37;100028.19;;;27.20;28.24
54816;BME280;40715;55.752;37.884;2024-02-26T02:28:04;100027.22;;;27.21;28.33
54816;BME280;40715;55.752;37.884;2024-02-26T02:30:32;100023.66;;;27.21;28.16
54816;BME280;40715;55.752;37.884;2024-02-26T02:33:00;100020.63;;;27.14;28.38
54816;BME280;40715;55.752;37.884;2024-02-26T02:35:27;100030.84;;;27.11;28.14
54816;BME280;40715;55.752;37.884;2024-02-26T02:37:56;100020.66;;;27.03;28.24
54816;BME280;40715;55.752;37.884;2024-02-26T02:40:24;100015.41;;;27.01;28.44
54816;BME280;40715;55.752;37.884;2024-02-26T02:42:51;100001.25;;;26.98;28.44
54816;BME280;40715;55.752;37.884;2024-02-26T02:45:18;100009.06;;;26.91;28.42
54816;BME280;40715;55.752;37.884;2024-02-26T02:47:45;100012.75;;;26.90;28.50
54816;BME280;40715;55.752;37.884;2024-02-26T02:50:12;100011.28;;;26.86;28.48
54816;BME280;40715;55.752;37.884;2024-02-26T02:52:39;100012.16;;;26.86;28.60
54816;BME280;40715;55.752;37.884;2024-02-26T02:55:06;100023.06;;;26.85;29.47
54816;BME280;40715;55.752;37.884;2024-02-26T02:57:34;100019.88;;;26.91;30.26
54816;BME280;40715;55.752;37.884;2024-02-26T03:00:01;100018.63;;;26.95;30.73
54816;BME280;40715;55.752;37.884;2024-02-26T03:02:30;100020.81;;;27.01;31.22
54816;BME280;40715;55.752;37.884;2024-02-26T03:04:57;100015.47;;;27.11;31.46
54816;BME280;40715;55.752;37.884;2024-02-26T03:07:24;100012.38;;;27.16;31.70
54816;BME280;40715;55.752;37.884;2024-02-26T03:09:52;100016.78;;;27.17;31.98
54816;BME280;40715;55.752;37.884;2024-02-26T03:12:19;100019.44;;;27.28;32.36
54816;BME280;40715;55.752;37.884;2024-02-26T03:14:46;100015.84;;;27.28;32.16
54816;BME280;40715;55.752;37.884;2024-02-26T03:17:13;100006.75;;;27.29;32.20
54816;BME280;40715;55.752;37.884;2024-02-26T03:19:40;100008.22;;;27.33;32.12
54816;BME280;40715;55.752;37.884;2024-02-26T03:22:07;100011.88;;;27.32;32.18
54816;BME280;40715;55.752;37.884;2024-02-26T03:24:34;100008.34;;;27.31;32.11
54816;BME280;40715;55.752;37.884;2024-02-26T03:27:01;100013.03;;;27.29;32.28
54816;BME280;40715;55.752;37.884;2024-02-26T03:29:29;100015.97;;;27.26;32.21
54816;BME280;40715;55.752;37.884;2024-02-26T03:31:55;100013.28;;;27.26;32.18
54816;BME280;40715;55.752;37.884;2024-02-26T03:34:23;100000.03;;;27.23;32.11
54816;BME280;40715;55.752;37.884;2024-02-26T03:36:50;100010.84;;;27.23;32.12
54816;BME280;40715;55.752;37.884;2024-02-26T03:39:17;100021.66;;;27.23;32.03
54816;BME280;40715;55.752;37.884;2024-02-26T03:41:44;100014.09;;;27.17;31.92
54816;BME280;40715;55.752;37.884;2024-02-26T03:44:11;100011.66;;;27.14;31.86
54816;BME280;40715;55.752;37.884;2024-02-26T03:46:38;100005.63;;;27.10;32.30
54816;BME280;40715;55.752;37.884;2024-02-26T03:49:05;100017.91;;;27.14;32.04
54816;BME280;40715;55.752;37.884;2024-02-26T03:51:33;100009.53;;;27.17;31.91
54816;BME280;40715;55.752;37.884;2024-02-26T03:54:00;100019.22;;;27.20;31.85
54816;BME280;40715;55.752;37.884;2024-02-26T03:56:27;100003.59;;;27.24;31.73
54816;BME280;40715;55.752;37.884;2024-02-26T03:58:54;100003.28;;;27.17;31.65
54816;BME280;40715;55.752;37.884;2024-02-26T04:01:22;100010.91;;;27.12;31.52
54816;BME280;40715;55.752;37.884;2024-02-26T04:03:49;100018.72;;;27.05;31.68
54816;BME280;40715;55.752;37.884;2024-02-26T04:06:17;100010.97;;;27.00;31.58
54816;BME280;40715;55.752;37.884;2024-02-26T04:08:48;100014.69;;;26.99;31.64
54816;BME280;40715;55.752;37.884;2024-02-26T04:11:15;100023.03;;;26.96;31.40
54816;BME280;40715;55.752;37.884;2024-02-26T04:13:45;100006.22;;;26.93;31.21
54816;BME280;40715;55.752;37.884;2024-02-26T04:16:17;100009.19;;;26.90;31.36
54816;BME280;40715;55.752;37.884;2024-02-26T04:18:45;100008.94;;;26.93;31.26
54816;BME280;40715;55.752;37.884;2024-02-26T04:21:12;100014.69;;;26.99;31.22
54816;BME280;40715;55.752;37.884;2024-02-26T04:23:39;100011.44;;;27.06;31.11
54816;BME280;40715;55.752;37.884;2024-02-26T04:26:06;100004.19;;;27.06;30.85
54816;BME280;40715;55.752;37.884;2024-02-26T04:28:33;100021.16;;;27.08;30.82
54816;BME280;40715;55.752;37.884;2024-02-26T04:31:00;100018.09;;;27.01;30.86
54816;BME280;40715;55.752;37.884;2024-02-26T04:33:27;100021.50;;;27.03;30.63
54816;BME280;40715;55.752;37.884;2024-02-26T04:35:54;100017.56;;;27.08;30.73
54816;BME280;40715;55.752;37.884;2024-02-26T04:38:21;100017.34;;;27.11;30.51
54816;BME280;40715;55.752;37.884;2024-02-26T04:40:49;100021.47;;;27.15;30.39
54816;BME280;40715;55.752;37.884;2024-02-26T04:43:16;100018.66;;;27.16;30.26
54816;BME280;40715;55.752;37.884;2024-02-26T04:45:44;100027.47;;;27.18;30.19
54816;BME280;40715;55.752;37.884;2024-02-26T04:48:12;100022.06;;;27.18;30.25
54816;BME280;40715;55.752;37.884;2024-02-26T04:50:39;100015.06;;;27.16;29.98
54816;BME280;40715;55.752;37.884;2024-02-26T04:53:06;100021.84;;;27.10;30.50
54816;BME280;40715;55.752;37.884;2024-02-26T04:55:33;100025.44;;;27.11;30.35
54816;BME280;40715;55.752;37.884;2024-02-26T04:58:00;100024.44;;;27.12;30.21
54816;BME280;40715;55.752;37.884;2024-02-26T05:00:27;100017.44;;;27.09;30.10
54816;BME280;40715;55.752;37.884;2024-02-26T05:02:54;100013.31;;;27.05;29.88
54816;BME280;40715;55.752;37.884;2024-02-26T05:05:21;100024.22;;;27.03;30.01
54816;BME280;40715;55.752;37.884;2024-02-26T05:07:48;100011.72;;;27.02;30.10
54816;BME280;40715;55.752;37.884;2024-02-26T05:10:15;100018.94;;;27.02;30.30
54816;BME280;40715;55.752;37.884;2024-02-26T05:12:43;100017.97;;;27.03;30.03
54816;BME280;40715;55.752;37.884;2024-02-26T05:15:10;100014.16;;;27.06;29.90
54816;BME280;40715;55.752;37.884;2024-02-26T05:17:38;100011.56;;;27.04;29.92
54816;BME280;40715;55.752;37.884;2024-02-26T05:20:05;100001.53;;;26.95;30.05
54816;BME280;40715;55.752;37.884;2024-02-26T05:22:34;100006.09;;;26.94;30.19
54816;BME280;40715;55.752;37.884;2024-02-26T05:25:01;100004.63;;;26.90;30.24
54816;BME280;40715;55.752;37.884;2024-02-26T05:27:30;100008.59;;;26.86;30.53
54816;BME280;40715;55.752;37.884;2024-02-26T05:29:57;100016.56;;;26.87;30.17
54816;BME280;40715;55.752;37.884;2024-02-26T05:32:24;100020.84;;;26.90;30.13
54816;BME280;40715;55.752;37.884;2024-02-26T05:34:52;100020.72;;;26.92;30.19
54816;BME280;40715;55.752;37.884;2024-02-26T05:37:19;100012.16;;;26.86;30.21
54816;BME280;40715;55.752;37.884;2024-02-26T05:39:46;100019.41;;;26.86;30.04
54816;BME280;40715;55.752;37.884;2024-02-26T05:42:13;100012.88;;;26.89;30.01
54816;BME280;40715;55.752;37.884;2024-02-26T05:44:40;100016.63;;;26.97;30.05
54816;BME280;40715;55.752;37.884;2024-02-26T05:47:07;100022.00;;;27.09;29.88
54816;BME280;40715;55.752;37.884;2024-02-26T05:49:34;100015.81;;;27.18;29.84
54816;BME280;40715;55.752;37.884;2024-02-26T05:52:01;100019.28;;;27.30;29.65
54816;BME280;40715;55.752;37.884;2024-02-26T05:54:28;100016.97;;;27.36;29.49
54816;BME280;40715;55.752;37.884;2024-02-26T05:56:55;100014.97;;;27.38;29.32
54816;BME280;40715;55.752;37.884;2024-02-26T05:59:22;100013.97;;;27.40;29.30
54816;BME280;40715;55.752;37.884;2024-02-26T06:01:49;100011.72;;;27.45;28.90
54816;BME280;40715;55.752;37.884;2024-02-26T06:04:16;100015.03;;;27.48;28.60
54816;BME280;40715;55.752;37.884;2024-02-26T06:06:44;100003.72;;;27.43;28.38
54816;BME280;40715;55.752;37.884;2024-02-26T06:09:12;100011.56;;;27.36;28.37
54816;BME280;40715;55.752;37.884;2024-02-26T06:11:40;100012.25;;;27.38;28.51
54816;BME280;40715;55.752;37.884;2024-02-26T06:14:07;100006.13;;;27.36;28.33
54816;BME280;40715;55.752;37.884;2024-02-26T06:16:34;100015.94;;;27.37;28.34
54816;BME280;40715;55.752;37.884;2024-02-26T06:19:01;100011.41;;;27.38;28.34
54816;BME280;40715;55.752;37.884;2024-02-26T06:21:29;100010.81;;;27.34;28.17
54816;BME280;40715;55.752;37.884;2024-02-26T06:23:56;100025.56;;;27.30;28.13
54816;BME280;40715;55.752;37.884;2024-02-26T06:26:23;100019.03;;;27.33;28.18
54816;BME280;40715;55.752;37.884;2024-02-26T06:28:50;100028.00;;;27.33;28.25
54816;BME280;40715;55.752;37.884;2024-02-26T06:31:19;100017.31;;;27.32;28.04
54816;BME280;40715;55.752;37.884;2024-02-26T06:33:47;100022.06;;;27.18;28.02
54816;BME280;40715;55.752;37.884;2024-02-26T06:36:17;100021.59;;;27.13;28.41
54816;BME280;40715;55.752;37.884;2024-02-26T06:38:44;100007.50;;;27.10;28.10
54816;BME280;40715;55.752;37.884;2024-02-26T06:41:11;100016.84;;;27.06;28.41
54816;BME280;40715;55.752;37.884;2024-02-26T06:43:38;100010.84;;;27.02;28.34
54816;BME280;40715;55.752;37.884;2024-02-26T06:46:06;100017.25;;;27.01;28.42
54816;BME280;40715;55.752;37.884;2024-02-26T06:48:33;100010.00;;;27.01;28.40
54816;BME280;40715;55.752;37.884;2024-02-26T06:51:00;99998.19;;;27.02;28.18
54816;BME280;40715;55.752;37.884;2024-02-26T06:53:27;100017.03;;;26.93;27.98
54816;BME280;40715;55.752;37.884;2024-02-26T06:55:54;100015.44;;;26.90;28.27
54816;BME280;40715;55.752;37.884;2024-02-26T06:58:21;100018.03;;;26.92;28.01
54816;BME280;40715;55.752;37.884;2024-02-26T07:00:48;100008.19;;;26.91;27.91
54816;BME280;40715;55.752;37.884;2024-02-26T07:03:15;100018.41;;;26.87;28.03
54816;BME280;40715;55.752;37.884;2024-02-26T07:05:42;100031.66;;;26.90;28.15
54816;BME280;40715;55.752;37.884;2024-02-26T07:08:12;100030.16;;;26.97;27.83
54816;BME280;40715;55.752;37.884;2024-02-26T07:10:39;100011.38;;;26.96;27.80
54816;BME280;40715;55.752;37.884;2024-02-26T07:13:06;100006.44;;;27.01;27.94
54816;BME280;40715;55.752;37.884;2024-02-26T07:15:33;100016.44;;;27.10;27.88
54816;BME280;40715;55.752;37.884;2024-02-26T07:18:00;100004.13;;;27.17;27.74
54816;BME280;40715;55.752;37.884;2024-02-26T07:20:30;100010.56;;;27.26;27.81
54816;BME280;40715;55.752;37.884;2024-02-26T07:22:57;100013.88;;;27.30;27.70
54816;BME280;40715;55.752;37.884;2024-02-26T07:25:24;100009.69;;;27.37;27.67
54816;BME280;40715;55.752;37.884;2024-02-26T07:27:51;100005.47;;;27.44;27.56
54816;BME280;40715;55.752;37.884;2024-02-26T07:30:18;99999.06;;;27.45;27.59
54816;BME280;40715;55.752;37.884;2024-02-26T07:32:45;99994.22;;;27.49;27.65
54816;BME280;40715;55.752;37.884;2024-02-26T07:35:16;99993.84;;;27.53;27.54
54816;BME280;40715;55.752;37.884;2024-02-26T07:37:46;99998.50;;;27.51;27.40
54816;BME280;40715;55.752;37.884;2024-02-26T07:40:14;99999.38;;;27.52;27.24
54816;BME280;40715;55.752;37.884;2024-02-26T07:42:43;99990.53;;;27.50;27.47
54816;BME280;40715;55.752;37.884;2024-02-26T07:45:10;99990.88;;;27.57;27.20
54816;BME280;40715;55.752;37.884;2024-02-26T07:47:37;100008.78;;;27.58;27.13
54816;BME280;40715;55.752;37.884;2024-02-26T07:50:08;100009.97;;;27.65;26.91
54816;BME280;40715;55.752;37.884;2024-02-26T07:52:36;100016.44;;;27.73;27.02
54816;BME280;40715;55.752;37.884;2024-02-26T07:55:03;100004.34;;;27.78;26.68
54816;BME280;40715;55.752;37.884;2024-02-26T07:57:33;100006.19;;;27.77;26.47
54816;BME280;40715;55.752;37.884;2024-02-26T08:00:03;100011.59;;;27.77;26.11
54816;BME280;40715;55.752;37.884;2024-02-26T08:02:31;99999.31;;;27.73;26.14
54816;BME280;40715;55.752;37.884;2024-02-26T08:04:58;100009.16;;;27.74;25.88
54816;BME280;40715;55.752;37.884;2024-02-26T08:07:25;100011.88;;;27.74;25.93
54816;BME280;40715;55.752;37.884;2024-02-26T08:09:52;100016.31;;;27.75;25.84
54816;BME280;40715;55.752;37.884;2024-02-26T08:12:19;100005.88;;;27.70;25.62
54816;BME280;40715;55.752;37.884;2024-02-26T08:14:46;100007.16;;;27.66;25.60
54816;BME280;40715;55.752;37.884;2024-02-26T08:17:13;100015.84;;;27.70;25.42
54816;BME280;40715;55.752;37.884;2024-02-26T08:19:40;100004.03;;;27.71;25.59
54816;BME280;40715;55.752;37.884;2024-02-26T08:22:07;100009.31;;;27.72;25.28
54816;BME280;40715;55.752;37.884;2024-02-26T08:24:34;100007.31;;;27.75;25.16
54816;BME280;40715;55.752;37.884;2024-02-26T08:27:01;100002.16;;;27.71;25.00
54816;BME280;40715;55.752;37.884;2024-02-26T08:29:29;100006.13;;;27.67;25.00
54816;BME280;40715;55.752;37.884;2024-02-26T08:31:56;100007.16;;;27.66;25.11
54816;BME280;40715;55.752;37.884;2024-02-26T08:34:23;100008.00;;;27.67;24.87
54816;BME280;40715;55.752;37.884;2024-02-26T08:36:50;99999.03;;;27.66;25.05
54816;BME280;40715;55.752;37.884;2024-02-26T08:39:18;100006.88;;;27.69;25.11
54816;BME280;40715;55.752;37.884;2024-02-26T08:41:45;99994.66;;;27.75;25.00
54816;BME280;40715;55.752;37.884;2024-02-26T08:44:12;100007.78;;;27.80;24.90
54816;BME280;40715;55.752;37.884;2024-02-26T08:46:39;99995.22;;;27.79;25.00
54816;BME280;40715;55.752;37.884;2024-02-26T08:49:06;99994.50;;;27.77;24.90
54816;BME280;40715;55.752;37.884;2024-02-26T08:51:33;99986.38;;;27.77;25.12
54816;BME280;40715;55.752;37.884;2024-02-26T08:54:00;99984.53;;;27.77;24.90
54816;BME280;40715;55.752;37.884;2024-02-26T08:56:28;99977.53;;;27.75;24.90
54816;BME280;40715;55.752;37.884;2024-02-26T08:58:55;99982.41;;;27.81;25.03
54816;BME280;40715;55.752;37.884;2024-02-26T09:01:24;99982.13;;;27.84;24.97
54816;BME280;40715;55.752;37.884;2024-02-26T09:03:51;99989.13;;;27.86;24.94
54816;BME280;40715;55.752;37.884;2024-02-26T09:06:18;99987.41;;;27.85;24.82
54816;BME280;40715;55.752;37.884;2024-02-26T09:08:45;99977.56;;;27.84;24.93
54816;BME280;40715;55.752;37.884;2024-02-26T09:11:12;99965.75;;;27.85;24.89
54816;BME280;40715;55.752;37.884;2024-02-26T09:13:39;99979.72;;;27.81;25.08
54816;BME280;40715;55.752;37.884;2024-02-26T09:16:07;99979.13;;;27.77;24.92
54816;BME280;40715;55.752;37.884;2024-02-26T09:18:34;99974.56;;;27.78;25.03
54816;BME280;40715;55.752;37.884;2024-02-26T09:21:04;99978.78;;;27.70;25.13
54816;BME280;40715;55.752;37.884;2024-02-26T09:23:32;99980.66;;;27.70;25.08
54816;BME280;40715;55.752;37.884;2024-02-26T09:26:00;99954.91;;;27.45;25.00
54816;BME280;40715;55.752;37.884;2024-02-26T09:28:27;99965.63;;;27.56;25.28
54816;BME280;40715;55.752;37.884;2024-02-26T09:30:54;99976.47;;;27.56;25.15
54816;BME280;40715;55.752;37.884;2024-02-26T09:33:21;99971.31;;;27.53;25.05
54816;BME280;40715;55.752;37.884;2024-02-26T09:35:49;99964.59;;;27.47;25.12
54816;BME280;40715;55.752;37.884;2024-02-26T09:38:16;99960.16;;;27.46;25.32
54816;BME280;40715;55.752;37.884;2024-02-26T09:40:43;99976.03;;;27.51;25.37
54816;BME280;40715;55.752;37.884;2024-02-26T09:43:14;99957.22;;;27.59;25.27
54816;BME280;40715;55.752;37.884;2024-02-26T09:45:42;99977.25;;;27.68;25.23
54816;BME280;40715;55.752;37.884;2024-02-26T09:48:10;99975.56;;;27.77;25.22
54816;BME280;40715;55.752;37.884;2024-02-26T09:50:41;99970.03;;;27.88;24.87
54816;BME280;40715;55.752;37.884;2024-02-26T09:53:11;99969.47;;;27.94;24.87
54816;BME280;40715;55.752;37.884;2024-02-26T09:55:39;99979.78;;;28.00;24.75
54816;BME280;40715;55.752;37.884;2024-02-26T09:58:06;99978.81;;;28.01;24.85
54816;BME280;40715;55.752;37.884;2024-02-26T10:00:37;99970.69;;;28.01;24.94
54816;BME280;40715;55.752;37.884;2024-02-26T10:03:09;99976.94;;;28.02;24.87
54816;BME280;40715;55.752;37.884;2024-02-26T10:05:40;99980.53;;;28.02;24.63
54816;BME280;40715;55.752;37.884;2024-02-26T10:08:11;99968.81;;;28.02;24.74
54816;BME280;40715;55.752;37.884;2024-02-26T10:10:39;99974.22;;;28.02;24.49
54816;BME280;40715;55.752;37.884;2024-02-26T10:13:07;99969.97;;;27.99;24.79
54816;BME280;40715;55.752;37.884;2024-02-26T10:15:36;99970.69;;;28.01;24.73
54816;BME280;40715;55.752;37.884;2024-02-26T10:18:05;99962.09;;;27.96;24.69
54816;BME280;40715;55.752;37.884;2024-02-26T10:20:32;99980.03;;;27.97;24.73
54816;BME280;40715;55.752;37.884;2024-02-26T10:23:03;99971.06;;;27.97;24.66
54816;BME280;40715;55.752;37.884;2024-02-26T10:25:31;99970.34;;;27.95;24.65
54816;BME280;40715;55.752;37.884;2024-02-26T10:28:00;99962.78;;;27.88;24.84
54816;BME280;40715;55.752;37.884;2024-02-26T10:30:30;99964.78;;;27.86;24.96
54816;BME280;40715;55.752;37.884;2024-02-26T10:32:58;99962.88;;;27.77;24.88
54816;BME280;40715;55.752;37.884;2024-02-26T10:35:26;99960.44;;;27.74;24.75
54816;BME280;40715;55.752;37.884;2024-02-26T10:37:54;99961.84;;;27.68;25.06
54816;BME280;40715;55.752;37.884;2024-02-26T10:40:21;99957.00;;;27.62;24.93
54816;BME280;40715;55.752;37.884;2024-02-26T10:42:48;99966.38;;;27.58;25.03
54816;BME280;40715;55.752;37.884;2024-02-26T10:45:15;99957.66;;;27.54;25.23
54816;BME280;40715;55.752;37.884;2024-02-26T10:47:42;99950.09;;;27.48;25.31
54816;BME280;40715;55.752;37.884;2024-02-26T10:50:12;99951.06;;;27.47;25.40
54816;BME280;40715;55.752;37.884;2024-02-26T10:52:40;99937.81;;;27.44;25.29
54816;BME280;40715;55.752;37.884;2024-02-26T10:55:15;99952.66;;;27.50;25.24
54816;BME280;40715;55.752;37.884;2024-02-26T10:57:45;99958.25;;;27.58;25.00
54816;BME280;40715;55.752;37.884;2024-02-26T11:00:15;99952.56;;;27.61;25.03
54816;BME280;40715;55.752;37.884;2024-02-26T11:02:44;99949.28;;;27.67;25.07
54816;BME280;40715;55.752;37.884;2024-02-26T11:05:14;99950.22;;;27.78;25.03
54816;BME280;40715;55.752;37.884;2024-02-26T11:07:42;99958.19;;;27.89;24.86
54816;BME280;40715;55.752;37.884;2024-02-26T11:10:11;99945.41;;;27.91;24.64
54816;BME280;40715;55.752;37.884;2024-02-26T11:12:39;99947.44;;;27.99;24.82
54816;BME280;40715;55.752;37.884;2024-02-26T11:15:06;99943.72;;;28.00;24.57
54816;BME280;40715;55.752;37.884;2024-02-26T11:17:35;99939.16;;;28.00;24.64
54816;BME280;40715;55.752;37.884;2024-02-26T11:20:04;99931.63;;;28.04;24.35
54816;BME280;40715;55.752;37.884;2024-02-26T11:22:32;99937.34;;;28.11;24.34
54816;BME280;40715;55.752;37.884;2024-02-26T11:25:00;99930.38;;;28.08;24.41
54816;BME280;40715;55.752;37.884;2024-02-26T11:27:35;99924.94;;;28.08;24.37
54816;BME280;40715;55.752;37.884;2024-02-26T11:30:05;99929.38;;;28.09;24.44
54816;BME280;40715;55.752;37.884;2024-02-26T11:32:36;99929.22;;;28.11;24.54
54816;BME280;40715;55.752;37.884;2024-02-26T11:35:05;99927.22;;;28.13;24.39
54816;BME280;40715;55.752;37.884;2024-02-26T11:37:32;99938.06;;;28.13;24.46
54816;BME280;40715;55.752;37.884;2024-02-26T11:40:03;99933.50;;;28.13;24.38
54816;BME280;40715;55.752;37.884;2024-02-26T11:42:30;99930.66;;;28.15;24.43
54816;BME280;40715;55.752;37.884;2024-02-26T11:44:58;99915.53;;;28.12;24.44
54816;BME280;40715;55.752;37.884;2024-02-26T11:47:28;99925.50;;;28.12;24.32
54816;BME280;40715;55.752;37.884;2024-02-26T11:49:55;99920.81;;;28.14;24.49
54816;BME280;40715;55.752;37.884;2024-02-26T11:52:22;99923.09;;;28.09;24.37
54816;BME280;40715;55.752;37.884;2024-02-26T11:54:51;99927.34;;;28.01;24.60
54816;BME280;40715;55.752;37.884;2024-02-26T12:02:52;99920.22;;;28.00;24.72
54816;BME280;40715;55.752;37.884;2024-02-26T12:05:25;99913.19;;;27.88;24.52
54816;BME280;40715;55.752;37.884;2024-02-26T12:07:59;99911.00;;;27.82;24.64
54816;BME280;40715;55.752;37.884;2024-02-26T12:10:30;99915.59;;;27.81;24.84
54816;BME280;40715;55.752;37.884;2024-02-26T12:13:11;99909.03;;;27.84;24.75
54816;BME280;40715;55.752;37.884;2024-02-26T12:16:06;99912.75;;;27.83;24.73
54816;BME280;40715;55.752;37.884;2024-02-26T12:18:32;99911.19;;;27.90;24.72
54816;BME280;40715;55.752;37.884;2024-02-26T12:21:04;99902.91;;;27.92;24.59
54816;BME280;40715;55.752;37.884;2024-02-26T12:23:31;99907.06;;;27.96;24.65
54816;BME280;40715;55.752;37.884;2024-02-26T12:26:00;99912.97;;;28.01;24.61
54816;BME280;40715;55.752;37.884;2024-02-26T12:28:31;99892.59;;;28.06;24.38
54816;BME280;40715;55.752;37.884;2024-02-26T12:30:58;99896.00;;;28.09;24.47
54816;BME280;40715;55.752;37.884;2024-02-26T12:33:27;99889.16;;;28.04;24.06
54816;BME280;40715;55.752;37.884;2024-02-26T12:35:54;99899.69;;;27.98;24.00
54816;BME280;40715;55.752;37.884;2024-02-26T12:38:21;99901.50;;;27.97;23.92
54816;BME280;40715;55.752;37.884;2024-02-26T12:40:49;99881.13;;;27.93;24.05
54816;BME280;40715;55.752;37.884;2024-02-26T12:43:16;99900.34;;;27.90;23.93
54816;BME280;40715;55.752;37.884;2024-02-26T12:45:43;99885.09;;;27.89;23.79
54816;BME280;40715;55.752;37.884;2024-02-26T12:48:13;99908.91;;;27.85;23.70
54816;BME280;40715;55.752;37.884;2024-02-26T12:50:45;99898.50;;;27.81;23.57